Time;durP1;ratioP1;P1;durP2;ratioP2;P2;SDS_P1;SDS_P2;PMS_P1;PMS_P2;Temp;Humidity;BMP_temperature;BMP_pressure;BME280_temperature;BME280_humidity;BME280_pressure;Samples;Min_cycle;Max_cycle;Signal;HPM_P1;HPM_P2
2022/04/02 00:00:28;;;;;;;2.83;1.60;;;9.00;99.90;;;;;;1018297;29;20012;-62
2022/04/02 00:00:58;;;;;;;2.85;1.38;;;9.10;99.90;;;;;;1018656;29;20016;-61
2022/04/02 00:01:29;;;;;;;2.43;1.70;;;9.10;99.90;;;;;;1022369;28;20020;-62
2022/04/02 00:02:00;;;;;;;2.63;2.03;;;9.00;99.90;;;;;;1026582;28;20019;-62
2022/04/02 00:02:30;;;;;;;2.10;1.30;;;9.10;99.90;;;;;;1022321;29;20546;-61
2022/04/02 00:03:01;;;;;;;3.13;1.80;;;9.00;99.90;;;;;;1022289;29;20058;-62
2022/04/02 00:03:31;;;;;;;2.13;1.83;;;9.00;99.90;;;;;;1022307;29;20027;-62
2022/04/02 00:04:02;;;;;;;1.80;1.60;;;9.00;99.90;;;;;;1018317;29;20400;-62
2022/04/02 00:04:33;;;;;;;2.77;1.67;;;9.00;99.90;;;;;;1022593;29;20031;-64
2022/04/02 00:05:03;;;;;;;3.27;2.13;;;9.00;99.90;;;;;;1022133;29;20031;-62
2022/04/02 00:05:34;;;;;;;2.63;1.83;;;9.00;99.90;;;;;;1022202;29;20023;-62
2022/04/02 00:06:04;;;;;;;1.80;1.70;;;9.10;99.90;;;;;;1022567;29;21091;-62
2022/04/02 00:06:36;;;;;;;1.93;1.70;;;9.00;99.90;;;;;;1022522;29;20667;-62
2022/04/02 00:07:07;;;;;;;1.70;1.40;;;9.00;99.90;;;;;;1022835;28;20030;-62
2022/04/02 00:07:38;;;;;;;3.00;1.87;;;9.00;99.90;;;;;;1022536;29;20043;-63
2022/04/02 00:08:08;;;;;;;2.40;1.90;;;9.00;99.90;;;;;;1022262;29;20111;-62
2022/04/02 00:08:39;;;;;;;3.00;2.00;;;9.00;99.90;;;;;;1022206;29;20098;-62
2022/04/02 00:09:09;;;;;;;2.27;2.07;;;9.00;99.90;;;;;;1022384;29;20023;-62
2022/04/02 00:09:40;;;;;;;1.90;1.50;;;9.00;99.90;;;;;;1022218;29;20090;-62
2022/04/02 00:10:11;;;;;;;3.20;1.90;;;8.90;99.90;;;;;;1022219;29;20019;-62
2022/04/02 00:10:42;;;;;;;2.77;1.60;;;9.00;99.90;;;;;;1022215;29;20034;-62
2022/04/02 00:11:12;;;;;;;3.10;2.50;;;8.90;99.90;;;;;;1022253;29;20114;-63
2022/04/02 00:11:45;;;;;;;3.17;1.80;;;8.90;99.90;;;;;;1022248;29;20510;-63
2022/04/02 00:12:16;;;;;;;3.78;1.83;;;8.90;99.90;;;;;;1022993;28;20019;-62
2022/04/02 00:12:46;;;;;;;2.43;1.70;;;8.90;99.90;;;;;;1022575;29;20114;-62
2022/04/02 00:13:17;;;;;;;2.43;1.50;;;8.90;99.90;;;;;;1022662;29;20019;-62
2022/04/02 00:13:47;;;;;;;1.97;1.67;;;8.90;99.90;;;;;;1017692;28;20081;-62
2022/04/02 00:14:18;;;;;;;2.03;1.70;;;8.90;99.90;;;;;;1021597;29;20619;-62
2022/04/02 00:14:48;;;;;;;3.00;1.87;;;8.90;99.90;;;;;;1022561;29;20025;-62
2022/04/02 00:15:19;;;;;;;4.17;1.87;;;8.90;99.90;;;;;;1022211;29;20109;-62
2022/04/02 00:15:50;;;;;;;3.27;1.60;;;8.90;99.90;;;;;;1022793;28;20030;-61
2022/04/02 00:16:20;;;;;;;2.57;1.63;;;8.80;99.90;;;;;;1022558;28;20467;-64
2022/04/02 00:16:52;;;;;;;2.70;1.70;;;8.90;99.90;;;;;;1022683;28;20042;-62
2022/04/02 00:17:22;;;;;;;1.73;1.63;;;8.90;99.90;;;;;;1022659;28;20088;-61
2022/04/02 00:17:53;;;;;;;2.40;1.70;;;8.90;99.90;;;;;;1022841;29;20011;-63
2022/04/02 00:18:23;;;;;;;2.77;1.63;;;8.90;99.90;;;;;;1022650;29;20434;-61
2022/04/02 00:18:54;;;;;;;3.13;1.60;;;8.90;99.90;;;;;;1022724;29;20046;-62
2022/04/02 00:19:24;;;;;;;2.47;1.93;;;8.80;99.90;;;;;;1022760;29;20019;-64
2022/04/02 00:19:55;;;;;;;4.23;1.83;;;8.80;99.90;;;;;;1022910;29;20376;-65
2022/04/02 00:20:26;;;;;;;2.43;2.03;;;8.80;99.90;;;;;;1022508;29;20534;-63
2022/04/02 00:20:57;;;;;;;3.00;1.90;;;8.80;99.90;;;;;;1022795;29;20015;-62
2022/04/02 00:21:28;;;;;;;3.55;1.98;;;8.80;99.90;;;;;;1022581;29;20584;-64
2022/04/02 00:21:59;;;;;;;3.00;1.83;;;8.80;99.90;;;;;;1022692;29;20427;-62
2022/04/02 00:22:29;;;;;;;4.03;1.90;;;8.80;99.90;;;;;;1022851;29;20019;-66
2022/04/02 00:23:49;;;;;;;3.08;2.00;;;8.80;99.90;;;;;;1021212;29;20662;-63
2022/04/02 00:24:20;;;;;;;3.83;2.00;;;8.80;99.90;;;;;;1022408;29;20784;-61
2022/04/02 00:24:50;;;;;;;2.40;1.97;;;8.80;99.90;;;;;;1022750;29;20015;-64
2022/04/02 00:25:21;;;;;;;2.13;1.50;;;8.80;99.90;;;;;;1022193;29;20664;-62
2022/04/02 00:25:51;;;;;;;2.77;1.90;;;8.80;99.90;;;;;;1022417;29;20470;-62
2022/04/02 00:26:22;;;;;;;2.70;2.20;;;8.80;99.90;;;;;;1022173;29;20079;-61
2022/04/02 00:26:52;;;;;;;3.87;2.20;;;8.80;99.90;;;;;;1018476;29;20019;-62
2022/04/02 00:27:23;;;;;;;3.03;2.10;;;8.70;99.90;;;;;;1022138;29;20459;-63
2022/04/02 00:27:54;;;;;;;2.63;2.20;;;8.80;99.90;;;;;;1022568;29;20098;-64
2022/04/02 00:28:24;;;;;;;2.27;1.50;;;8.80;99.90;;;;;;1022283;29;20023;-63
2022/04/02 00:28:55;;;;;;;2.40;1.90;;;8.70;99.90;;;;;;1022206;29;20064;-63
2022/04/02 00:29:25;;;;;;;2.93;2.10;;;8.70;99.90;;;;;;1022268;29;20012;-64
2022/04/02 00:29:56;;;;;;;2.63;1.80;;;8.70;99.90;;;;;;1022416;29;20097;-63
2022/04/02 00:30:26;;;;;;;2.47;1.80;;;8.70;99.90;;;;;;1022355;29;20019;-64
2022/04/02 00:30:57;;;;;;;3.50;2.10;;;8.70;99.90;;;;;;1022680;29;20015;-64
2022/04/02 00:31:31;;;;;;;3.60;1.90;;;8.70;99.90;;;;;;1022715;28;20030;-64
2022/04/02 00:32:02;;;;;;;2.15;1.92;;;8.70;99.90;;;;;;1022620;28;20019;-62
2022/04/02 00:32:33;;;;;;;2.03;1.83;;;8.70;99.90;;;;;;1023436;29;20027;-62
2022/04/02 00:33:04;;;;;;;2.37;2.00;;;8.70;99.90;;;;;;1023363;28;20093;-61
2022/04/02 00:33:35;;;;;;;1.85;1.75;;;8.70;99.90;;;;;;1023503;28;20046;-63
2022/04/02 00:34:07;;;;;;;3.50;2.15;;;8.70;99.90;;;;;;1023365;29;20019;-64
2022/04/02 00:34:38;;;;;;;3.40;1.90;;;8.70;99.90;;;;;;1023443;28;20062;-65
2022/04/02 00:35:09;;;;;;;2.15;1.67;;;8.70;99.90;;;;;;1026954;28;20501;-63
2022/04/02 00:35:39;;;;;;;4.27;1.83;;;8.70;99.90;;;;;;1023209;29;20039;-63
2022/04/02 00:36:11;;;;;;;2.97;1.50;;;8.70;99.90;;;;;;1022958;29;20024;-63
2022/04/02 00:36:42;;;;;;;2.60;1.60;;;8.70;99.90;;;;;;1023036;29;20438;-62
2022/04/02 00:37:12;;;;;;;5.23;2.03;;;8.70;99.90;;;;;;1023037;29;20549;-63
2022/04/02 00:37:43;;;;;;;5.00;2.13;;;8.70;99.90;;;;;;1027115;28;20073;-63
2022/04/02 00:38:13;;;;;;;2.47;2.00;;;8.60;99.90;;;;;;1027238;28;20106;-63
2022/04/02 00:38:44;;;;;;;2.03;1.73;;;8.60;99.90;;;;;;1027143;28;20030;-62
2022/04/02 00:39:14;;;;;;;1.93;1.60;;;8.60;99.90;;;;;;1026845;28;20029;-63
2022/04/02 00:39:45;;;;;;;2.93;1.93;;;8.60;99.90;;;;;;1022995;29;20027;-63
2022/04/02 00:40:15;;;;;;;5.37;2.00;;;8.60;99.90;;;;;;1026887;28;20017;-63
2022/04/02 00:40:46;;;;;;;2.20;1.70;;;8.60;99.90;;;;;;1027441;28;20745;-63
2022/04/02 00:41:17;;;;;;;2.53;2.07;;;8.60;99.90;;;;;;1027052;28;20019;-63
2022/04/02 00:41:47;;;;;;;2.60;1.90;;;8.60;99.90;;;;;;1026976;28;20109;-62
2022/04/02 00:42:18;;;;;;;3.03;1.93;;;8.60;99.90;;;;;;1023244;29;20026;-64
2022/04/02 00:42:49;;;;;;;2.50;1.85;;;8.60;99.90;;;;;;1022964;28;20023;-63
2022/04/02 00:43:28;;;;;;;4.27;1.60;;;8.60;99.90;;;;;;1023062;29;20023;-63
2022/04/02 00:44:17;;;;;;;2.65;1.67;;;8.60;99.90;;;;;;1023040;29;20030;-64
2022/04/02 00:44:48;;;;;;;2.22;1.50;;;8.60;99.90;;;;;;1023253;29;20169;-62
2022/04/02 00:45:18;;;;;;;3.83;2.30;;;8.60;99.90;;;;;;1023093;29;20030;-63
2022/04/02 00:45:50;;;;;;;3.07;1.90;;;8.60;99.90;;;;;;1023371;29;20027;-63
2022/04/02 00:46:21;;;;;;;1.50;1.40;;;8.60;99.90;;;;;;1022838;29;20110;-62
2022/04/02 00:46:52;;;;;;;1.67;1.57;;;8.50;99.90;;;;;;1023233;29;20015;-62
2022/04/02 00:47:22;;;;;;;3.25;2.10;;;8.50;99.90;;;;;;1022900;29;20019;-63
2022/04/02 00:47:53;;;;;;;3.70;2.00;;;8.60;99.90;;;;;;1023148;29;20101;-63
2022/04/02 00:48:25;;;;;;;4.10;2.03;;;8.60;99.90;;;;;;1023409;29;20027;-62
2022/04/02 00:48:55;;;;;;;3.72;1.90;;;8.60;99.90;;;;;;1023711;29;20020;-62
2022/04/02 00:49:28;;;;;;;2.43;1.60;;;8.50;99.90;;;;;;1022764;29;20031;-62
2022/04/02 00:49:59;;;;;;;2.72;1.90;;;8.50;99.90;;;;;;1022939;29;20041;-63
2022/04/02 00:50:30;;;;;;;4.45;1.92;;;8.50;99.90;;;;;;1023038;29;20103;-62
2022/04/02 00:51:04;;;;;;;1.75;1.60;;;8.50;99.90;;;;;;1023229;29;20016;-62
2022/04/02 00:51:41;;;;;;;2.63;1.80;;;8.50;99.90;;;;;;1023342;29;20039;-62
2022/04/02 00:52:11;;;;;;;3.00;1.80;;;8.50;99.90;;;;;;1023478;29;20027;-62
2022/04/02 00:52:43;;;;;;;2.23;1.63;;;8.50;99.90;;;;;;1023318;29;20027;-63
2022/04/02 00:53:15;;;;;;;2.30;1.60;;;8.50;99.90;;;;;;1023427;29;20079;-62
2022/04/02 00:53:49;;;;;;;3.22;1.95;;;8.50;99.90;;;;;;1023277;29;20122;-63
2022/04/02 00:54:20;;;;;;;3.67;1.88;;;8.50;99.90;;;;;;1023091;28;20042;-63
2022/04/02 00:54:52;;;;;;;3.28;1.58;;;8.50;99.90;;;;;;1023313;29;20523;-62
2022/04/02 00:55:24;;;;;;;2.50;1.40;;;8.50;99.90;;;;;;1023281;29;20015;-63
2022/04/02 00:55:55;;;;;;;2.80;1.70;;;8.50;99.90;;;;;;1023313;29;20101;-63
2022/04/02 00:56:26;;;;;;;2.20;1.50;;;8.50;99.90;;;;;;1023066;29;20069;-63
2022/04/02 00:56:57;;;;;;;4.93;1.98;;;8.50;99.90;;;;;;1023001;29;20131;-63
2022/04/02 00:57:29;;;;;;;3.20;1.60;;;8.50;99.90;;;;;;1022877;29;20015;-62
2022/04/02 00:58:02;;;;;;;2.90;1.70;;;8.50;99.90;;;;;;1018946;29;20778;-63
2022/04/02 00:58:33;;;;;;;2.67;1.90;;;8.50;99.90;;;;;;1019220;29;20011;-63
2022/04/02 00:59:03;;;;;;;3.83;2.40;;;8.50;99.90;;;;;;1019628;29;20031;-63
2022/04/02 00:59:35;;;;;;;2.77;1.80;;;8.50;99.90;;;;;;1023725;28;20218;-63
2022/04/02 01:00:07;;;;;;;3.80;2.33;;;8.50;99.90;;;;;;1022785;29;20015;-63
2022/04/02 01:00:41;;;;;;;3.65;1.98;;;8.50;99.90;;;;;;1023173;29;20122;-64
2022/04/02 01:01:12;;;;;;;3.13;1.98;;;8.50;99.90;;;;;;1022915;29;20020;-63
2022/04/02 01:01:45;;;;;;;2.60;2.05;;;8.50;99.90;;;;;;1023186;29;20030;-62
2022/04/02 01:02:15;;;;;;;3.58;1.80;;;8.50;99.90;;;;;;1023185;29;20020;-62
2022/04/02 01:02:46;;;;;;;2.03;1.40;;;8.50;99.90;;;;;;1023377;29;20011;-62
2022/04/02 01:03:18;;;;;;;4.50;1.90;;;8.50;99.90;;;;;;1023247;29;20161;-63
2022/04/02 01:03:49;;;;;;;4.07;2.40;;;8.50;99.90;;;;;;1023424;29;20027;-62
2022/04/02 01:04:20;;;;;;;3.83;2.23;;;8.50;99.90;;;;;;1022316;29;20015;-62
2022/04/02 01:04:51;;;;;;;2.60;2.05;;;8.50;99.90;;;;;;1019469;29;20015;-63
2022/04/02 01:05:22;;;;;;;5.80;2.55;;;8.50;99.90;;;;;;1018941;29;20083;-63
2022/04/02 01:05:53;;;;;;;4.03;1.80;;;8.50;99.90;;;;;;1019098;29;20011;-63
2022/04/02 01:06:24;;;;;;;2.03;1.80;;;8.40;99.90;;;;;;1018842;29;20015;-63
2022/04/02 01:06:54;;;;;;;3.63;2.10;;;8.40;99.90;;;;;;1019327;29;20019;-62
2022/04/02 01:07:25;;;;;;;2.37;1.70;;;8.40;99.90;;;;;;1018703;29;20031;-63
2022/04/02 01:07:56;;;;;;;3.63;1.87;;;8.40;99.90;;;;;;1022539;29;20053;-63
2022/04/02 01:08:27;;;;;;;2.35;1.60;;;8.40;99.90;;;;;;1023096;29;20599;-62
2022/04/02 01:08:58;;;;;;;2.63;1.77;;;8.40;99.90;;;;;;1023174;29;20452;-65
2022/04/02 01:09:29;;;;;;;2.85;1.92;;;8.40;99.90;;;;;;1023187;29;20184;-63
2022/04/02 01:09:59;;;;;;;2.77;1.90;;;8.40;99.90;;;;;;1017350;28;20137;-63
2022/04/02 01:10:30;;;;;;;2.37;1.90;;;8.40;99.90;;;;;;1022675;28;20066;-63
2022/04/02 01:11:00;;;;;;;2.80;1.60;;;8.40;99.90;;;;;;1023144;28;20445;-63
2022/04/02 01:11:38;;;;;;;2.57;2.10;;;8.40;99.90;;;;;;1023161;28;20031;-64
2022/04/02 01:12:09;;;;;;;2.47;2.10;;;8.40;99.90;;;;;;1023492;28;20070;-63
2022/04/02 01:12:39;;;;;;;2.47;1.80;;;8.40;99.90;;;;;;1021357;28;20031;-63
2022/04/02 01:13:10;;;;;;;3.10;2.27;;;8.40;99.90;;;;;;1018878;29;20106;-63
2022/04/02 01:13:41;;;;;;;4.33;2.40;;;8.40;99.90;;;;;;1019900;29;20016;-63
2022/04/02 01:14:11;;;;;;;2.93;2.13;;;8.40;99.90;;;;;;1019267;29;20020;-63
2022/04/02 01:14:42;;;;;;;3.07;1.80;;;8.40;99.90;;;;;;1019496;29;20135;-63
2022/04/02 01:15:12;;;;;;;2.33;1.87;;;8.40;99.90;;;;;;1022877;29;20038;-63
2022/04/02 01:15:43;;;;;;;3.20;1.73;;;8.40;99.90;;;;;;1023035;29;20015;-63
2022/04/02 01:16:14;;;;;;;3.07;1.97;;;8.30;99.90;;;;;;1022879;29;20030;-63
2022/04/02 01:16:45;;;;;;;2.87;1.83;;;8.30;99.90;;;;;;1022897;29;20118;-63
2022/04/02 01:17:15;;;;;;;2.38;1.90;;;8.30;99.90;;;;;;1022994;29;20118;-62
2022/04/02 01:17:46;;;;;;;3.57;1.87;;;8.30;99.90;;;;;;1023051;29;20122;-63
2022/04/02 01:18:17;;;;;;;1.90;1.70;;;8.30;99.90;;;;;;1022632;29;20030;-63
2022/04/02 01:18:47;;;;;;;3.63;2.27;;;8.30;99.90;;;;;;1019353;29;20020;-62
2022/04/02 01:19:18;;;;;;;2.20;2.00;;;8.30;99.90;;;;;;1019161;29;20023;-63
2022/04/02 01:19:49;;;;;;;2.40;2.00;;;8.30;99.90;;;;;;1019933;29;20016;-63
2022/04/02 01:20:20;;;;;;;2.22;1.83;;;8.30;99.90;;;;;;1022944;29;20019;-62
2022/04/02 01:20:53;;;;;;;2.22;1.80;;;8.30;99.90;;;;;;1023454;29;20020;-62
2022/04/02 01:21:25;;;;;;;2.85;1.80;;;8.30;99.90;;;;;;1022588;29;20023;-62
2022/04/02 01:21:56;;;;;;;2.92;2.05;;;8.30;99.90;;;;;;1022985;29;20058;-62
2022/04/02 01:22:26;;;;;;;2.53;1.93;;;8.30;99.90;;;;;;1022917;29;20023;-62
2022/04/02 01:22:59;;;;;;;2.23;1.67;;;8.30;99.90;;;;;;1023072;29;20037;-62
2022/04/02 01:23:30;;;;;;;3.33;2.17;;;8.30;99.90;;;;;;1023181;29;20042;-62
2022/04/02 01:24:01;;;;;;;3.30;1.90;;;8.30;99.90;;;;;;1023403;28;20019;-61
2022/04/02 01:24:31;;;;;;;3.20;2.15;;;8.30;99.90;;;;;;1023139;28;20031;-62
2022/04/02 01:25:03;;;;;;;1.90;1.60;;;8.30;99.90;;;;;;1023435;29;20106;-62
2022/04/02 01:25:34;;;;;;;2.75;2.33;;;8.30;99.90;;;;;;1023222;28;20023;-62
2022/04/02 01:26:04;;;;;;;4.10;2.10;;;8.30;99.90;;;;;;1023237;28;20107;-62
2022/04/02 01:26:35;;;;;;;4.10;1.90;;;8.30;99.90;;;;;;1023210;29;20038;-62
2022/04/02 01:27:06;;;;;;;2.57;1.87;;;8.30;99.90;;;;;;1023339;29;20034;-61
2022/04/02 01:27:37;;;;;;;2.60;1.98;;;8.30;99.90;;;;;;1022766;29;20027;-62
2022/04/02 01:28:08;;;;;;;4.63;2.25;;;8.30;99.90;;;;;;1023004;29;20435;-62
2022/04/02 01:28:40;;;;;;;2.67;2.13;;;8.30;99.90;;;;;;1022760;29;20766;-62
2022/04/02 01:29:10;;;;;;;5.43;2.00;;;8.30;99.90;;;;;;1022988;29;20026;-62
2022/04/02 01:29:41;;;;;;;2.40;1.80;;;8.30;99.90;;;;;;1022759;29;20034;-62
2022/04/02 01:30:13;;;;;;;3.73;1.97;;;8.30;99.90;;;;;;1018952;29;20538;-62
2022/04/02 01:30:44;;;;;;;2.65;2.00;;;8.20;99.90;;;;;;1018726;29;20036;-63
2022/04/02 01:31:14;;;;;;;2.33;1.90;;;8.20;99.90;;;;;;1018940;29;20024;-62
2022/04/02 01:31:45;;;;;;;4.10;2.00;;;8.20;99.90;;;;;;1019179;29;20096;-61
2022/04/02 01:32:15;;;;;;;2.17;1.63;;;8.20;99.90;;;;;;1022619;29;20015;-64
2022/04/02 01:32:46;;;;;;;3.30;1.93;;;8.20;99.90;;;;;;1023399;29;20450;-62
2022/04/02 01:33:16;;;;;;;3.50;1.73;;;8.20;99.90;;;;;;1023254;29;20808;-63
2022/04/02 01:33:51;;;;;;;2.80;2.03;;;8.20;99.90;;;;;;1023074;29;20023;-61
2022/04/02 01:34:21;;;;;;;3.67;1.90;;;8.20;99.90;;;;;;1022720;29;20754;-62
2022/04/02 01:34:52;;;;;;;3.17;2.00;;;8.20;99.90;;;;;;1022829;29;20079;-62
2022/04/02 01:35:22;;;;;;;3.20;1.70;;;8.20;99.90;;;;;;1022794;29;20023;-62
2022/04/02 01:36:01;;;;;;;3.00;1.90;;;8.20;99.90;;;;;;1022593;28;20024;-62
2022/04/02 01:36:32;;;;;;;2.55;1.95;;;8.20;99.90;;;;;;1022725;29;20426;-61
2022/04/02 01:37:03;;;;;;;3.13;1.93;;;8.20;99.90;;;;;;1022707;29;20446;-61
2022/04/02 01:37:33;;;;;;;2.42;1.85;;;8.20;99.90;;;;;;1019028;29;20699;-64
2022/04/02 01:38:04;;;;;;;1.93;1.53;;;8.20;99.90;;;;;;1018955;29;20055;-62
2022/04/02 01:38:35;;;;;;;3.30;2.07;;;8.20;99.90;;;;;;1022889;29;20550;-63
2022/04/02 01:39:05;;;;;;;3.80;1.93;;;8.20;99.90;;;;;;1022757;29;20023;-63
2022/04/02 01:39:36;;;;;;;2.50;1.80;;;8.20;99.90;;;;;;1022986;29;20058;-62
2022/04/02 01:40:07;;;;;;;4.07;2.20;;;8.20;99.90;;;;;;1023244;29;20032;-63
2022/04/02 01:40:38;;;;;;;3.05;1.67;;;8.20;99.90;;;;;;1023326;28;20016;-63
2022/04/02 01:41:08;;;;;;;3.17;2.13;;;8.20;99.90;;;;;;1023046;29;20106;-63
2022/04/02 01:41:39;;;;;;;3.13;2.00;;;8.20;99.90;;;;;;1023250;29;20368;-63
2022/04/02 01:42:09;;;;;;;1.93;1.40;;;8.20;99.90;;;;;;1023013;29;20395;-63
2022/04/02 01:42:40;;;;;;;2.43;1.50;;;8.20;99.90;;;;;;1023214;29;20098;-63
2022/04/02 01:43:11;;;;;;;2.20;1.75;;;8.20;99.90;;;;;;1022374;28;20798;-63
2022/04/02 01:43:42;;;;;;;2.97;1.90;;;8.20;99.90;;;;;;1022788;29;20073;-63
2022/04/02 01:44:13;;;;;;;4.40;2.35;;;8.20;99.90;;;;;;1022566;29;20380;-63
2022/04/02 01:44:49;;;;;;;3.37;1.63;;;8.20;99.90;;;;;;1022935;29;20511;-62
2022/04/02 01:45:20;;;;;;;2.58;1.75;;;8.20;99.90;;;;;;1022711;29;20019;-64
2022/04/02 01:45:55;;;;;;;4.53;2.17;;;8.20;99.90;;;;;;1023122;29;20043;-65
2022/04/02 01:46:26;;;;;;;3.70;1.90;;;8.20;99.90;;;;;;1022891;29;20058;-61
2022/04/02 01:46:56;;;;;;;2.63;1.83;;;8.10;99.90;;;;;;1023262;29;20033;-62
2022/04/02 01:47:27;;;;;;;2.17;1.63;;;8.20;99.90;;;;;;1023078;29;20521;-62
2022/04/02 01:47:58;;;;;;;2.43;1.90;;;8.20;99.90;;;;;;1023544;29;20493;-62
2022/04/02 01:48:29;;;;;;;4.50;1.60;;;8.20;99.90;;;;;;1023000;29;20057;-61
2022/04/02 01:49:00;;;;;;;2.35;1.88;;;8.20;99.90;;;;;;1023147;29;20390;-62
2022/04/02 01:49:30;;;;;;;3.33;2.07;;;8.20;99.90;;;;;;1023106;29;20379;-62
2022/04/02 01:50:01;;;;;;;2.40;1.90;;;8.20;99.90;;;;;;1023170;29;20030;-62
2022/04/02 01:50:32;;;;;;;3.63;1.95;;;8.20;99.90;;;;;;1023056;29;20134;-61
2022/04/02 01:51:03;;;;;;;2.63;1.88;;;8.20;99.90;;;;;;1022893;29;20090;-61
2022/04/02 01:51:34;;;;;;;3.65;1.73;;;8.20;99.90;;;;;;1023054;29;20031;-63
2022/04/02 01:52:05;;;;;;;2.30;2.03;;;8.20;99.90;;;;;;1026690;28;20439;-63
2022/04/02 01:52:35;;;;;;;2.43;1.80;;;8.20;99.90;;;;;;1026830;28;20026;-63
2022/04/02 01:53:06;;;;;;;2.93;2.47;;;8.20;99.90;;;;;;1026765;28;21015;-61
2022/04/02 01:53:36;;;;;;;3.47;2.27;;;8.20;99.90;;;;;;1026543;28;20038;-62
2022/04/02 01:54:07;;;;;;;2.50;2.03;;;8.20;99.90;;;;;;1023045;29;20119;-61
2022/04/02 01:54:37;;;;;;;2.93;2.00;;;8.20;99.90;;;;;;1022983;29;20038;-62
2022/04/02 01:55:08;;;;;;;2.93;2.07;;;8.20;99.90;;;;;;1023261;29;20019;-63
2022/04/02 01:55:39;;;;;;;3.10;1.60;;;8.20;99.90;;;;;;1023145;28;20037;-65
2022/04/02 01:56:09;;;;;;;2.60;1.80;;;8.20;99.90;;;;;;1026666;28;20019;-63
2022/04/02 01:56:40;;;;;;;2.70;1.60;;;8.10;99.90;;;;;;1022630;29;20031;-64
2022/04/02 01:57:10;;;;;;;1.70;1.43;;;8.10;99.90;;;;;;1022821;29;20370;-63
2022/04/02 01:57:41;;;;;;;2.47;1.83;;;8.10;99.90;;;;;;1022764;29;20019;-63
2022/04/02 01:58:12;;;;;;;2.87;2.20;;;8.10;99.90;;;;;;1022687;28;20020;-65
2022/04/02 01:58:42;;;;;;;3.23;2.00;;;8.10;99.90;;;;;;1026996;28;20023;-64
2022/04/02 01:59:13;;;;;;;4.03;2.00;;;8.10;99.90;;;;;;1026647;28;20026;-63
2022/04/02 01:59:48;;;;;;;2.40;1.80;;;8.10;99.90;;;;;;1022709;29;20125;-63
2022/04/02 02:00:21;;;;;;;1.77;1.67;;;8.10;99.90;;;;;;1022655;29;20026;-63
2022/04/02 02:00:52;;;;;;;3.20;1.50;;;8.10;99.90;;;;;;1023037;29;20046;-62
2022/04/02 02:01:22;;;;;;;2.13;1.87;;;8.10;99.90;;;;;;1022648;29;20371;-61
2022/04/02 02:01:53;;;;;;;2.60;1.67;;;8.10;99.90;;;;;;1023340;28;20035;-63
2022/04/02 02:02:23;;;;;;;2.97;1.60;;;8.10;99.90;;;;;;1022455;29;20094;-61
2022/04/02 02:02:54;;;;;;;2.60;2.10;;;8.10;99.90;;;;;;1022827;29;20102;-62
2022/04/02 02:03:25;;;;;;;2.30;1.60;;;8.10;99.90;;;;;;1022454;29;20030;-61
2022/04/02 02:03:55;;;;;;;2.70;1.50;;;8.10;99.90;;;;;;1019107;29;20023;-62
2022/04/02 02:04:26;;;;;;;2.50;1.90;;;8.00;99.90;;;;;;1022471;29;20075;-62
2022/04/02 02:04:57;;;;;;;3.10;1.83;;;8.10;99.90;;;;;;1022872;29;20019;-62
2022/04/02 02:05:27;;;;;;;4.23;1.83;;;8.00;99.90;;;;;;1022668;29;20023;-62
2022/04/02 02:05:58;;;;;;;3.00;1.90;;;8.00;99.90;;;;;;1022207;28;20126;-64
2022/04/02 02:06:29;;;;;;;3.57;2.20;;;8.00;99.90;;;;;;1020151;28;20579;-62
2022/04/02 02:07:01;;;;;;;2.97;2.10;;;8.00;99.90;;;;;;1022240;28;20486;-61
2022/04/02 02:07:31;;;;;;;2.58;2.00;;;8.00;99.90;;;;;;1022679;29;20442;-61
2022/04/02 02:08:03;;;;;;;3.23;1.70;;;8.00;99.90;;;;;;1018743;29;20518;-63
2022/04/02 02:08:34;;;;;;;4.40;1.95;;;8.00;99.90;;;;;;1019148;29;20123;-61
2022/04/02 02:09:05;;;;;;;2.08;1.80;;;8.00;99.90;;;;;;1018651;29;20042;-63
2022/04/02 02:09:36;;;;;;;2.83;2.00;;;8.00;99.90;;;;;;1019020;29;20140;-62
2022/04/02 02:10:07;;;;;;;2.67;1.80;;;8.00;99.90;;;;;;1022708;29;20035;-64
2022/04/02 02:10:37;;;;;;;2.53;1.90;;;8.10;99.90;;;;;;1022646;29;20781;-65
2022/04/02 02:11:08;;;;;;;2.30;1.60;;;8.00;99.90;;;;;;1023379;28;20824;-64
2022/04/02 02:11:40;;;;;;;3.13;2.00;;;8.00;99.90;;;;;;1022975;28;20031;-63
2022/04/02 02:12:10;;;;;;;3.75;2.47;;;8.00;99.90;;;;;;1023000;28;20026;-62
2022/04/02 02:12:41;;;;;;;3.23;2.00;;;8.00;99.90;;;;;;1022412;29;20034;-63
2022/04/02 02:13:11;;;;;;;3.50;2.13;;;8.00;99.90;;;;;;1022687;29;20445;-62
2022/04/02 02:13:42;;;;;;;2.67;1.83;;;8.00;99.90;;;;;;1022574;29;20418;-63
2022/04/02 02:14:12;;;;;;;3.17;1.73;;;8.00;99.90;;;;;;1022710;29;20019;-62
2022/04/02 02:14:43;;;;;;;2.87;1.73;;;8.00;99.90;;;;;;1022919;28;20028;-61
2022/04/02 02:15:17;;;;;;;3.77;1.80;;;8.00;99.90;;;;;;1022989;28;20027;-61
2022/04/02 02:15:47;;;;;;;3.38;1.95;;;8.00;99.90;;;;;;1023027;28;20026;-61
2022/04/02 02:16:18;;;;;;;3.50;1.97;;;8.00;99.90;;;;;;1022506;29;20027;-63
2022/04/02 02:16:49;;;;;;;3.05;1.70;;;8.00;99.90;;;;;;1022758;29;20062;-63
2022/04/02 02:17:20;;;;;;;2.75;1.60;;;8.00;99.90;;;;;;1022426;29;20541;-62
2022/04/02 02:17:51;;;;;;;3.33;2.60;;;8.00;99.90;;;;;;1022627;29;20514;-62
2022/04/02 02:18:21;;;;;;;4.47;2.17;;;8.00;99.90;;;;;;1018939;29;20360;-61
2022/04/02 02:18:52;;;;;;;2.87;2.00;;;8.00;99.90;;;;;;1019235;29;20107;-64
2022/04/02 02:19:22;;;;;;;2.87;1.90;;;8.00;99.90;;;;;;1022675;29;20058;-63
2022/04/02 02:19:53;;;;;;;3.93;2.03;;;8.00;99.90;;;;;;1022748;29;20023;-64
2022/04/02 02:20:24;;;;;;;3.38;1.90;;;8.00;99.90;;;;;;1022542;29;20137;-62
2022/04/02 02:20:54;;;;;;;2.97;1.77;;;8.00;99.90;;;;;;1022587;29;20110;-63
2022/04/02 02:21:25;;;;;;;2.47;1.93;;;8.00;99.90;;;;;;1022511;29;20069;-64
2022/04/02 02:21:57;;;;;;;5.53;2.33;;;8.00;99.90;;;;;;1025593;28;20026;-62
2022/04/02 02:22:27;;;;;;;3.05;2.20;;;8.00;99.90;;;;;;1026757;28;20015;-62
2022/04/02 02:22:58;;;;;;;2.40;1.60;;;8.00;99.90;;;;;;1026486;28;20027;-63
2022/04/02 02:23:28;;;;;;;3.00;2.00;;;8.00;99.90;;;;;;1022881;29;20058;-62
2022/04/02 02:23:59;;;;;;;3.33;2.20;;;8.00;99.90;;;;;;1023028;29;20016;-62
2022/04/02 02:24:29;;;;;;;2.03;1.53;;;8.00;99.90;;;;;;1023062;29;20445;-62
2022/04/02 02:25:00;;;;;;;2.73;1.97;;;8.00;99.90;;;;;;1023139;29;20879;-64
2022/04/02 02:25:30;;;;;;;3.50;1.90;;;8.00;99.90;;;;;;1022940;29;20479;-62
2022/04/02 02:26:01;;;;;;;2.97;2.17;;;8.00;99.90;;;;;;1022997;29;20026;-62
2022/04/02 02:26:32;;;;;;;3.03;2.17;;;8.00;99.90;;;;;;1019944;29;20402;-63
2022/04/02 02:27:02;;;;;;;3.20;1.80;;;8.00;99.90;;;;;;1019330;29;20364;-62
2022/04/02 02:27:34;;;;;;;1.97;1.77;;;8.00;99.90;;;;;;1018454;29;20028;-62
2022/04/02 02:28:04;;;;;;;2.72;2.08;;;7.90;99.90;;;;;;1018720;29;20494;-64
2022/04/02 02:28:35;;;;;;;3.43;2.23;;;7.90;99.90;;;;;;1018763;29;20509;-65
2022/04/02 02:29:06;;;;;;;4.57;2.00;;;7.90;99.90;;;;;;1018867;29;20111;-61
2022/04/02 02:29:36;;;;;;;4.25;2.33;;;7.90;99.90;;;;;;1018743;29;20023;-63
2022/04/02 02:30:09;;;;;;;2.33;1.80;;;7.90;99.90;;;;;;1019080;29;20074;-61
2022/04/02 02:30:40;;;;;;;3.13;1.92;;;7.90;99.90;;;;;;1018377;29;20566;-63
2022/04/02 02:31:11;;;;;;;2.67;2.03;;;7.90;99.90;;;;;;1018852;29;20519;-62
2022/04/02 02:31:41;;;;;;;2.87;1.67;;;7.90;99.90;;;;;;1018567;29;20776;-62
2022/04/02 02:32:12;;;;;;;2.83;1.57;;;7.90;99.90;;;;;;1018635;29;20170;-62
2022/04/02 02:32:44;;;;;;;3.97;2.00;;;7.90;99.90;;;;;;1018880;29;20055;-62
2022/04/02 02:36:02;;;;;;;2.63;2.10;;;7.90;99.90;;;;;;1010533;29;20036;-63
2022/04/02 02:36:32;;;;;;;3.03;2.03;;;7.90;99.90;;;;;;1010587;29;20052;-62
2022/04/02 02:37:03;;;;;;;4.27;2.07;;;7.90;99.90;;;;;;1010671;29;20113;-64
2022/04/02 02:37:34;;;;;;;2.80;2.27;;;7.90;99.90;;;;;;1010698;29;20152;-63
2022/04/02 02:38:10;;;;;;;2.50;1.90;;;7.90;99.90;;;;;;1010280;29;20033;-64
2022/04/02 02:38:40;;;;;;;3.38;1.83;;;7.90;99.90;;;;;;1010631;29;20075;-62
2022/04/02 02:39:11;;;;;;;3.27;1.80;;;7.90;99.90;;;;;;1010648;29;20796;-61
2022/04/02 02:39:42;;;;;;;4.37;2.30;;;7.90;99.90;;;;;;1010710;29;20588;-62
2022/04/02 02:40:12;;;;;;;4.38;2.20;;;7.90;99.90;;;;;;1010797;29;20384;-63
2022/04/02 02:40:43;;;;;;;3.33;1.90;;;7.90;99.90;;;;;;1014403;29;20111;-63
2022/04/02 02:41:13;;;;;;;2.60;2.07;;;7.90;99.90;;;;;;1014414;29;20087;-63
2022/04/02 02:41:44;;;;;;;2.87;1.97;;;7.90;99.90;;;;;;1014769;29;20075;-62
2022/04/02 02:42:14;;;;;;;3.10;1.70;;;7.90;99.90;;;;;;1018907;29;20012;-63
2022/04/02 02:42:45;;;;;;;2.83;1.97;;;7.90;99.90;;;;;;1019009;29;20020;-62
2022/04/02 02:43:16;;;;;;;3.77;2.10;;;7.90;99.90;;;;;;1019000;29;20016;-63
2022/04/02 02:43:47;;;;;;;2.13;1.70;;;7.80;99.90;;;;;;1019037;29;20411;-64
2022/04/02 02:44:18;;;;;;;2.60;1.47;;;7.80;99.90;;;;;;1018763;29;20019;-62
2022/04/02 02:44:48;;;;;;;2.47;1.80;;;7.80;99.90;;;;;;1019197;29;20012;-62
2022/04/02 02:45:19;;;;;;;2.27;1.90;;;7.80;99.90;;;;;;1018833;29;20438;-63
2022/04/02 02:45:50;;;;;;;2.63;1.77;;;7.80;99.90;;;;;;1019172;29;20506;-61
2022/04/02 02:46:21;;;;;;;1.90;1.70;;;7.80;99.90;;;;;;1018848;29;20016;-64
2022/04/02 02:46:51;;;;;;;2.33;1.67;;;7.80;99.90;;;;;;1018926;29;20019;-62
2022/04/02 02:47:22;;;;;;;1.77;1.60;;;7.80;99.90;;;;;;1021921;29;20031;-63
2022/04/02 02:47:53;;;;;;;3.23;2.00;;;7.80;99.90;;;;;;1023096;29;20666;-62